Time;durP1;ratioP1;P1;durP2;ratioP2;P2;SDS_P1;SDS_P2;PMS_P1;PMS_P2;Temp;Humidity;BMP_temperature;BMP_pressure;BME280_temperature;BME280_humidity;BME280_pressure;Samples;Min_cycle;Max_cycle;Signal;HPM_P1;HPM_P2
2023/02/25 00:00:16;;;;;;;0.20;0.20;;;;;;;;;;5043663;28;20273;-66
2023/02/25 00:02:42;;;;;;;0.20;0.20;;;;;;;;;;5032657;28;20231;-66
2023/02/25 00:05:11;;;;;;;0.20;0.20;;;;;;;;;;5034550;28;20252;-66
2023/02/25 00:07:37;;;;;;;0.20;0.20;;;;;;;;;;5059183;28;20224;-66
2023/02/25 00:10:04;;;;;;;0.20;0.20;;;;;;;;;;5044199;28;20208;-66
2023/02/25 00:12:30;;;;;;;0.20;0.20;;;;;;;;;;5049191;28;20442;-66
2023/02/25 00:14:57;;;;;;;0.20;0.20;;;;;;;;;;5044121;28;20262;-68
2023/02/25 00:17:23;;;;;;;0.20;0.20;;;;;;;;;;5049176;28;20502;-67
2023/02/25 00:19:49;;;;;;;0.20;0.20;;;;;;;;;;5043898;28;20235;-69
2023/02/25 00:22:17;;;;;;;0.20;0.20;;;;;;;;;;5048916;28;20638;-67
2023/02/25 00:24:43;;;;;;;0.20;0.20;;;;;;;;;;5043977;28;20283;-67
2023/02/25 00:27:10;;;;;;;0.20;0.20;;;;;;;;;;5049015;28;20266;-67
2023/02/25 00:29:36;;;;;;;0.20;0.20;;;;;;;;;;5043464;28;20249;-66
2023/02/25 00:32:02;;;;;;;0.20;0.20;;;;;;;;;;5048297;28;20255;-68
2023/02/25 00:34:29;;;;;;;0.20;0.20;;;;;;;;;;5044421;28;20452;-67
2023/02/25 00:36:55;;;;;;;0.20;0.20;;;;;;;;;;5047269;28;20600;-68
2023/02/25 00:39:23;;;;;;;0.20;0.20;;;;;;;;;;5044985;28;20204;-68
2023/02/25 00:41:50;;;;;;;0.20;0.20;;;;;;;;;;5046400;28;20285;-68
2023/02/25 00:44:16;;;;;;;0.20;0.20;;;;;;;;;;5045805;28;20278;-68
2023/02/25 00:46:42;;;;;;;0.20;0.20;;;;;;;;;;5045549;28;20250;-67
2023/02/25 00:49:09;;;;;;;0.20;0.20;;;;;;;;;;5046801;28;20236;-68
2023/02/25 00:51:38;;;;;;;0.20;0.20;;;;;;;;;;5044647;28;20620;-68
2023/02/25 00:54:04;;;;;;;0.20;0.20;;;;;;;;;;5047291;28;20586;-68
2023/02/25 00:56:32;;;;;;;0.20;0.20;;;;;;;;;;5043934;28;20255;-68
2023/02/25 00:58:59;;;;;;;0.27;0.27;;;;;;;;;;5047977;28;20214;-68
2023/02/25 01:01:26;;;;;;;0.20;0.20;;;;;;;;;;5043260;28;20239;-68
2023/02/25 01:03:54;;;;;;;0.20;0.20;;;;;;;;;;5048340;28;20224;-68
2023/02/25 01:06:20;;;;;;;0.20;0.20;;;;;;;;;;5042524;28;20263;-67
2023/02/25 01:08:47;;;;;;;0.20;0.20;;;;;;;;;;5049472;28;20462;-69
2023/02/25 01:11:15;;;;;;;0.20;0.20;;;;;;;;;;5043848;28;20248;-68
2023/02/25 01:13:43;;;;;;;0.20;0.20;;;;;;;;;;5054254;28;20205;-68
2023/02/25 01:16:10;;;;;;;0.20;0.20;;;;;;;;;;5045186;28;20277;-68
2023/02/25 01:18:36;;;;;;;0.20;0.20;;;;;;;;;;5054649;28;20243;-67
2023/02/25 01:21:03;;;;;;;0.50;0.50;;;;;;;;;;5043858;28;20267;-67
2023/02/25 01:23:30;;;;;;;0.20;0.20;;;;;;;;;;5055468;28;20243;-67
2023/02/25 01:25:56;;;;;;;0.20;0.20;;;;;;;;;;5043313;28;20242;-68
2023/02/25 01:28:22;;;;;;;0.20;0.20;;;;;;;;;;5055926;28;20280;-67
2023/02/25 01:30:50;;;;;;;0.20;0.20;;;;;;;;;;5042222;28;20239;-68
2023/02/25 01:33:16;;;;;;;0.20;0.20;;;;;;;;;;5056688;28;20246;-67
2023/02/25 01:35:43;;;;;;;0.20;0.20;;;;;;;;;;5041428;28;20302;-67
2023/02/25 01:38:09;;;;;;;1.83;1.73;;;;;;;;;;5057306;28;20246;-68
2023/02/25 01:40:36;;;;;;;0.20;0.20;;;;;;;;;;5040419;28;20258;-68
2023/02/25 01:43:04;;;;;;;0.20;0.20;;;;;;;;;;5058112;28;20213;-68
2023/02/25 01:45:31;;;;;;;0.20;0.20;;;;;;;;;;5039799;28;20244;-68
2023/02/25 01:48:02;;;;;;;0.20;0.20;;;;;;;;;;5058713;28;20576;-67
2023/02/25 01:50:31;;;;;;;0.20;0.20;;;;;;;;;;5039481;28;20251;-68
2023/02/25 01:53:00;;;;;;;0.20;0.20;;;;;;;;;;5058999;28;20242;-68
2023/02/25 01:55:26;;;;;;;0.20;0.20;;;;;;;;;;5039083;28;20259;-68
2023/02/25 01:57:52;;;;;;;0.20;0.20;;;;;;;;;;5059534;28;20388;-68
2023/02/25 02:00:19;;;;;;;0.20;0.20;;;;;;;;;;5037968;28;20297;-68
2023/02/25 02:02:48;;;;;;;0.37;0.37;;;;;;;;;;5060240;28;20582;-67
2023/02/25 02:05:15;;;;;;;0.20;0.20;;;;;;;;;;5037260;28;20254;-68
2023/02/25 02:07:42;;;;;;;0.20;0.20;;;;;;;;;;5060371;28;20211;-67
2023/02/25 02:10:09;;;;;;;0.20;0.20;;;;;;;;;;5036333;28;20277;-69
2023/02/25 02:12:37;;;;;;;0.20;0.20;;;;;;;;;;5061459;28;20437;-67
2023/02/25 02:15:06;;;;;;;0.20;0.20;;;;;;;;;;5046226;28;20325;-68
2023/02/25 02:17:34;;;;;;;0.20;0.20;;;;;;;;;;5034732;28;20278;-67
2023/02/25 02:20:12;;;;;;;0.20;0.20;;;;;;;;;;5046166;28;20234;-67
2023/02/25 02:22:57;;;;;;;0.20;0.20;;;;;;;;;;5034187;28;20290;-67
2023/02/25 02:25:56;;;;;;;0.20;0.20;;;;;;;;;;5034145;28;20401;-68
2023/02/25 02:28:43;;;;;;;0.20;0.20;;;;;;;;;;5055177;28;20413;-67
2023/02/25 02:31:18;;;;;;;0.20;0.20;;;;;;;;;;5043818;28;20261;-68
2023/02/25 02:33:49;;;;;;;0.20;0.20;;;;;;;;;;5051911;28;20281;-68
2023/02/25 02:36:19;;;;;;;0.20;0.20;;;;;;;;;;5044516;28;20305;-68
2023/02/25 02:38:48;;;;;;;0.20;0.20;;;;;;;;;;5051670;28;20278;-68
2023/02/25 02:41:17;;;;;;;0.20;0.20;;;;;;;;;;5044337;28;20264;-68
2023/02/25 02:43:47;;;;;;;0.20;0.20;;;;;;;;;;5052144;28;20232;-68
2023/02/25 02:46:16;;;;;;;0.20;0.20;;;;;;;;;;5044080;28;20242;-68
2023/02/25 02:48:46;;;;;;;0.20;0.20;;;;;;;;;;5052147;28;20207;-68
2023/02/25 02:51:16;;;;;;;0.20;0.20;;;;;;;;;;5043793;28;20263;-68
2023/02/25 02:53:44;;;;;;;0.20;0.20;;;;;;;;;;5051776;28;20195;-65
2023/02/25 02:56:12;;;;;;;0.20;0.20;;;;;;;;;;5043504;28;20569;-67
2023/02/25 02:58:41;;;;;;;0.20;0.20;;;;;;;;;;5052272;28;20276;-66
2023/02/25 03:01:11;;;;;;;0.20;0.20;;;;;;;;;;5042664;28;20633;-66
2023/02/25 03:03:40;;;;;;;0.20;0.20;;;;;;;;;;5052930;28;20235;-66
2023/02/25 03:06:11;;;;;;;0.20;0.20;;;;;;;;;;5042257;28;20248;-66
2023/02/25 03:08:43;;;;;;;0.20;0.20;;;;;;;;;;5052705;28;20260;-68
2023/02/25 03:11:10;;;;;;;0.20;0.20;;;;;;;;;;5042652;28;20437;-66
2023/02/25 03:13:36;;;;;;;0.20;0.20;;;;;;;;;;5052682;28;20213;-68
2023/02/25 03:16:04;;;;;;;0.20;0.20;;;;;;;;;;5041656;28;20294;-68
2023/02/25 03:18:34;;;;;;;0.20;0.20;;;;;;;;;;5053286;28;20279;-68
2023/02/25 03:21:01;;;;;;;0.20;0.20;;;;;;;;;;5041339;28;20306;-68
2023/02/25 03:23:30;;;;;;;0.20;0.20;;;;;;;;;;5053779;28;20255;-67
2023/02/25 03:26:05;;;;;;;0.20;0.20;;;;;;;;;;5040360;28;20238;-68
2023/02/25 03:28:32;;;;;;;0.20;0.20;;;;;;;;;;5052987;28;20202;-68
2023/02/25 03:31:01;;;;;;;0.20;0.20;;;;;;;;;;5040855;28;20262;-68
2023/02/25 03:33:32;;;;;;;0.20;0.20;;;;;;;;;;5052717;28;20247;-68
2023/02/25 03:35:59;;;;;;;0.20;0.20;;;;;;;;;;5040382;28;20254;-69
2023/02/25 03:38:28;;;;;;;0.20;0.20;;;;;;;;;;5053895;28;20274;-67
2023/02/25 03:40:57;;;;;;;0.20;0.20;;;;;;;;;;5040123;28;20305;-66
2023/02/25 03:43:25;;;;;;;0.20;0.20;;;;;;;;;;5054028;28;20230;-67
2023/02/25 03:45:52;;;;;;;0.20;0.20;;;;;;;;;;5039653;28;20654;-75
2023/02/25 03:48:19;;;;;;;0.20;0.20;;;;;;;;;;5054570;28;20239;-75
2023/02/25 03:50:47;;;;;;;0.20;0.20;;;;;;;;;;5038437;28;20246;-75
2023/02/25 03:53:14;;;;;;;0.20;0.20;;;;;;;;;;5054857;28;20274;-75
2023/02/25 03:55:40;;;;;;;0.20;0.20;;;;;;;;;;5038031;28;20261;-75
2023/02/25 03:58:08;;;;;;;0.20;0.20;;;;;;;;;;5055601;28;20268;-74
2023/02/25 04:00:37;;;;;;;0.20;0.20;;;;;;;;;;5037280;28;20261;-74
2023/02/25 04:03:04;;;;;;;0.20;0.20;;;;;;;;;;5055819;28;20287;-73
2023/02/25 04:05:30;;;;;;;0.20;0.20;;;;;;;;;;5036703;28;20299;-73
2023/02/25 04:07:57;;;;;;;0.20;0.20;;;;;;;;;;5057041;28;20512;-73
2023/02/25 04:10:24;;;;;;;0.20;0.20;;;;;;;;;;5035553;28;20246;-73
2023/02/25 04:12:51;;;;;;;0.20;0.20;;;;;;;;;;5057763;28;20192;-73
2023/02/25 04:15:19;;;;;;;0.20;0.20;;;;;;;;;;5034544;28;20274;-73
2023/02/25 04:17:46;;;;;;;0.20;0.20;;;;;;;;;;5058330;28;20384;-72
2023/02/25 04:20:13;;;;;;;0.20;0.20;;;;;;;;;;5035943;28;20210;-72
2023/02/25 04:22:39;;;;;;;0.20;0.20;;;;;;;;;;5058987;28;20262;-71
2023/02/25 04:25:06;;;;;;;0.27;0.27;;;;;;;;;;5043849;28;20274;-72
2023/02/25 04:27:33;;;;;;;0.20;0.20;;;;;;;;;;5048939;28;20249;-73
2023/02/25 04:29:59;;;;;;;0.20;0.20;;;;;;;;;;5043972;28;20537;-74
2023/02/25 04:32:27;;;;;;;0.20;0.20;;;;;;;;;;5048720;28;20237;-73
2023/02/25 04:34:53;;;;;;;0.20;0.20;;;;;;;;;;5043920;28;20273;-74
2023/02/25 04:37:19;;;;;;;0.20;0.20;;;;;;;;;;5048802;28;20241;-74
2023/02/25 04:39:46;;;;;;;0.20;0.20;;;;;;;;;;5043638;28;20234;-76
2023/02/25 04:42:12;;;;;;;0.20;0.20;;;;;;;;;;5048793;28;20491;-74
2023/02/25 04:44:39;;;;;;;0.20;0.20;;;;;;;;;;5043747;28;20246;-75
2023/02/25 04:47:05;;;;;;;0.20;0.20;;;;;;;;;;5047683;28;20252;-75
2023/02/25 04:49:43;;;;;;;0.20;0.20;;;;;;;;;;5044472;28;20299;-74
2023/02/25 04:52:10;;;;;;;0.20;0.20;;;;;;;;;;5048615;28;20633;-74
2023/02/25 04:54:36;;;;;;;0.20;0.20;;;;;;;;;;5043754;28;20426;-74
2023/02/25 04:57:03;;;;;;;0.20;0.20;;;;;;;;;;5047355;28;20264;-74
2023/02/25 04:59:29;;;;;;;0.20;0.20;;;;;;;;;;5044495;28;20243;-74
2023/02/25 05:01:55;;;;;;;0.20;0.20;;;;;;;;;;5044987;28;20259;-75
2023/02/25 05:04:22;;;;;;;0.20;0.20;;;;;;;;;;5046302;28;20289;-74
2023/02/25 05:06:49;;;;;;;0.20;0.20;;;;;;;;;;5045403;28;20297;-74
2023/02/25 05:09:16;;;;;;;0.20;0.20;;;;;;;;;;5046289;28;20243;-72
2023/02/25 05:11:42;;;;;;;0.20;0.20;;;;;;;;;;5044650;28;20241;-74
2023/02/25 05:14:09;;;;;;;0.20;0.20;;;;;;;;;;5046856;28;20203;-75
2023/02/25 05:16:36;;;;;;;0.20;0.20;;;;;;;;;;5043807;28;20313;-75
2023/02/25 05:19:02;;;;;;;0.20;0.20;;;;;;;;;;5047533;28;20243;-75
2023/02/25 05:21:28;;;;;;;0.20;0.20;;;;;;;;;;5042919;28;20576;-75
2023/02/25 05:23:56;;;;;;;0.20;0.20;;;;;;;;;;5048603;28;20293;-74
2023/02/25 05:26:24;;;;;;;0.20;0.20;;;;;;;;;;5042047;28;20243;-75
2023/02/25 05:28:50;;;;;;;0.20;0.20;;;;;;;;;;5048993;28;20261;-74
2023/02/25 05:31:17;;;;;;;0.20;0.20;;;;;;;;;;5041357;28;20266;-75
2023/02/25 05:33:43;;;;;;;0.20;0.20;;;;;;;;;;5049989;28;20405;-74
2023/02/25 05:36:11;;;;;;;0.27;0.27;;;;;;;;;;5040504;28;20535;-74
2023/02/25 05:38:37;;;;;;;0.20;0.20;;;;;;;;;;5050627;28;20274;-74
2023/02/25 05:41:05;;;;;;;0.20;0.20;;;;;;;;;;5039586;28;20270;-74
2023/02/25 05:43:32;;;;;;;0.83;0.83;;;;;;;;;;5051731;28;20419;-73
2023/02/25 05:46:00;;;;;;;0.20;0.20;;;;;;;;;;5038934;28;20302;-73
2023/02/25 05:48:26;;;;;;;0.20;0.20;;;;;;;;;;5052313;28;20206;-74
2023/02/25 05:50:59;;;;;;;0.20;0.20;;;;;;;;;;5038009;28;20513;-72
2023/02/25 05:53:25;;;;;;;0.20;0.20;;;;;;;;;;5052395;28;20330;-74
2023/02/25 05:55:52;;;;;;;0.20;0.20;;;;;;;;;;5038057;28;20446;-74
2023/02/25 05:58:19;;;;;;;0.20;0.20;;;;;;;;;;5055131;28;20196;-74
2023/02/25 06:00:46;;;;;;;0.20;0.20;;;;;;;;;;5040037;28;20638;-74
2023/02/25 06:03:12;;;;;;;0.20;0.20;;;;;;;;;;5058265;28;20239;-74
2023/02/25 06:05:39;;;;;;;0.20;0.20;;;;;;;;;;5039866;28;20256;-76
2023/02/25 06:08:06;;;;;;;0.20;0.20;;;;;;;;;;5057905;28;20239;-74
2023/02/25 06:10:37;;;;;;;0.20;0.20;;;;;;;;;;5038887;28;20252;-74
2023/02/25 06:13:03;;;;;;;0.20;0.20;;;;;;;;;;5058420;28;20196;-74
2023/02/25 06:15:31;;;;;;;0.20;0.20;;;;;;;;;;5038698;28;20279;-74
2023/02/25 06:17:57;;;;;;;0.20;0.20;;;;;;;;;;5058852;28;20227;-74
2023/02/25 06:20:24;;;;;;;0.20;0.20;;;;;;;;;;5038014;28;20238;-73
2023/02/25 06:22:51;;;;;;;0.20;0.20;;;;;;;;;;5059018;28;20266;-74
2023/02/25 06:25:17;;;;;;;0.20;0.20;;;;;;;;;;5037374;28;20253;-73
2023/02/25 06:27:44;;;;;;;0.20;0.20;;;;;;;;;;5059803;28;20292;-74
2023/02/25 06:30:10;;;;;;;0.20;0.20;;;;;;;;;;5036393;28;20256;-74
2023/02/25 06:32:38;;;;;;;0.20;0.20;;;;;;;;;;5060734;28;20257;-74
2023/02/25 06:35:06;;;;;;;0.20;0.20;;;;;;;;;;5045937;28;20214;-74
2023/02/25 06:37:33;;;;;;;0.20;0.20;;;;;;;;;;5034541;28;20219;-74
2023/02/25 06:39:59;;;;;;;0.20;0.20;;;;;;;;;;5045986;28;20207;-74
2023/02/25 06:42:26;;;;;;;0.20;0.20;;;;;;;;;;5050845;28;20524;-73
2023/02/25 06:44:52;;;;;;;0.20;0.20;;;;;;;;;;5045466;28;20254;-74
2023/02/25 06:47:18;;;;;;;0.20;0.20;;;;;;;;;;5050891;28;20310;-74
2023/02/25 06:49:46;;;;;;;0.20;0.20;;;;;;;;;;5045489;28;20239;-73
2023/02/25 06:52:12;;;;;;;0.20;0.20;;;;;;;;;;5050698;28;20318;-74
2023/02/25 06:54:39;;;;;;;0.20;0.20;;;;;;;;;;5045514;28;20526;-74
2023/02/25 06:57:05;;;;;;;0.20;0.20;;;;;;;;;;5050372;28;20618;-74
2023/02/25 06:59:34;;;;;;;0.20;0.20;;;;;;;;;;5045732;28;20523;-74
2023/02/25 07:02:00;;;;;;;0.30;0.30;;;;;;;;;;5049590;28;20309;-75
2023/02/25 07:04:27;;;;;;;0.20;0.20;;;;;;;;;;5046169;28;20278;-74
2023/02/25 07:06:54;;;;;;;0.20;0.20;;;;;;;;;;5048660;28;20250;-74
2023/02/25 07:09:21;;;;;;;0.20;0.20;;;;;;;;;;5046542;28;20208;-74
2023/02/25 07:11:47;;;;;;;0.20;0.20;;;;;;;;;;5047658;28;20261;-74
2023/02/25 07:14:15;;;;;;;0.20;0.20;;;;;;;;;;5047730;28;20360;-74
2023/02/25 07:16:41;;;;;;;0.20;0.20;;;;;;;;;;5046941;28;20241;-74
2023/02/25 07:19:07;;;;;;;0.20;0.20;;;;;;;;;;5048271;28;20236;-74
2023/02/25 07:21:34;;;;;;;0.20;0.20;;;;;;;;;;5045809;28;20502;-74
2023/02/25 07:24:01;;;;;;;0.20;0.20;;;;;;;;;;5049089;28;20483;-75
2023/02/25 07:26:28;;;;;;;2.13;0.97;;;;;;;;;;5044955;28;20263;-74
2023/02/25 07:28:55;;;;;;;0.20;0.20;;;;;;;;;;5049801;28;20271;-74
2023/02/25 07:31:22;;;;;;;0.20;0.20;;;;;;;;;;5044182;28;20240;-74
2023/02/25 07:33:48;;;;;;;0.20;0.20;;;;;;;;;;5050207;28;20247;-74
2023/02/25 07:36:15;;;;;;;0.20;0.20;;;;;;;;;;5043240;28;20506;-74
2023/02/25 07:38:42;;;;;;;0.20;0.20;;;;;;;;;;5051287;28;20236;-74
2023/02/25 07:41:10;;;;;;;0.20;0.20;;;;;;;;;;5042388;28;20246;-75
2023/02/25 07:43:37;;;;;;;0.20;0.20;;;;;;;;;;5051624;28;20302;-74
2023/02/25 07:46:03;;;;;;;0.20;0.20;;;;;;;;;;5041724;28;20646;-74
2023/02/25 07:48:30;;;;;;;0.20;0.20;;;;;;;;;;5052754;28;20563;-74
2023/02/25 07:50:56;;;;;;;0.20;0.20;;;;;;;;;;5040551;28;20244;-74
2023/02/25 07:53:23;;;;;;;0.20;0.20;;;;;;;;;;5053548;28;20208;-74
2023/02/25 07:55:49;;;;;;;0.20;0.20;;;;;;;;;;5039704;28;20305;-74
2023/02/25 07:58:17;;;;;;;0.20;0.20;;;;;;;;;;5054037;28;20274;-74
2023/02/25 08:00:48;;;;;;;0.20;0.20;;;;;;;;;;5038834;28;20254;-74
2023/02/25 08:03:14;;;;;;;0.20;0.20;;;;;;;;;;5054105;28;20232;-73
2023/02/25 08:05:40;;;;;;;0.20;0.20;;;;;;;;;;5038448;28;20243;-74
2023/02/25 08:08:07;;;;;;;0.20;0.20;;;;;;;;;;5055052;28;20208;-74
2023/02/25 08:10:33;;;;;;;0.20;0.20;;;;;;;;;;5037373;28;20262;-74
2023/02/25 08:12:59;;;;;;;0.20;0.20;;;;;;;;;;5056220;28;20443;-74
2023/02/25 08:15:27;;;;;;;0.20;0.20;;;;;;;;;;5036366;28;20230;-75
2023/02/25 08:17:54;;;;;;;0.20;0.20;;;;;;;;;;5056785;28;20276;-74
2023/02/25 08:20:21;;;;;;;0.20;0.20;;;;;;;;;;5035209;28;20393;-74
2023/02/25 08:22:47;;;;;;;0.20;0.20;;;;;;;;;;5057745;28;20229;-73
2023/02/25 08:25:13;;;;;;;0.20;0.20;;;;;;;;;;5034586;28;20259;-74
2023/02/25 08:27:40;;;;;;;0.20;0.20;;;;;;;;;;5058611;28;20227;-74
2023/02/25 08:30:07;;;;;;;0.10;0.10;;;;;;;;;;5043847;28;20214;-74
2023/02/25 08:32:35;;;;;;;0.10;0.10;;;;;;;;;;5032252;28;20388;-74
2023/02/25 08:35:02;;;;;;;0.20;0.20;;;;;;;;;;5043994;28;20246;-74
2023/02/25 08:37:28;;;;;;;0.20;0.20;;;;;;;;;;5048952;28;20243;-74
2023/02/25 08:39:55;;;;;;;0.20;0.20;;;;;;;;;;5043876;28;20275;-74
2023/02/25 08:42:21;;;;;;;0.10;0.10;;;;;;;;;;5048934;28;20598;-74
2023/02/25 08:44:48;;;;;;;0.10;0.10;;;;;;;;;;5043614;28;20331;-74
2023/02/25 08:47:15;;;;;;;0.20;0.20;;;;;;;;;;5048816;28;20633;-74
2023/02/25 08:49:43;;;;;;;0.20;0.20;;;;;;;;;;5043830;28;20278;-73
2023/02/25 08:52:10;;;;;;;0.13;0.13;;;;;;;;;;5048781;28;20270;-74
2023/02/25 08:54:37;;;;;;;0.10;0.10;;;;;;;;;;5043539;28;20235;-73
2023/02/25 08:57:04;;;;;;;0.20;0.20;;;;;;;;;;5048151;28;20266;-74
2023/02/25 08:59:34;;;;;;;0.20;0.20;;;;;;;;;;5043947;28;20414;-73
2023/02/25 09:02:01;;;;;;;0.20;0.20;;;;;;;;;;5047816;28;20571;-74
2023/02/25 09:04:27;;;;;;;0.20;0.20;;;;;;;;;;5044325;28;20538;-69
2023/02/25 09:06:57;;;;;;;0.20;0.20;;;;;;;;;;5046916;28;20248;-71
2023/02/25 09:09:23;;;;;;;0.20;0.20;;;;;;;;;;5044762;28;20211;-73
2023/02/25 09:11:50;;;;;;;0.20;0.20;;;;;;;;;;5046309;28;20487;-72
2023/02/25 09:14:17;;;;;;;0.20;0.20;;;;;;;;;;5045650;28;20275;-70
2023/02/25 09:16:43;;;;;;;0.20;0.20;;;;;;;;;;5045475;28;20420;-71
2023/02/25 09:19:11;;;;;;;0.20;0.20;;;;;;;;;;5046329;28;20236;-73
2023/02/25 09:21:39;;;;;;;0.20;0.20;;;;;;;;;;5044728;28;20254;-57
2023/02/25 09:24:07;;;;;;;0.20;0.20;;;;;;;;;;5046695;28;20228;-69
2023/02/25 09:26:33;;;;;;;0.20;0.20;;;;;;;;;;5044234;28;20605;-71
2023/02/25 09:29:00;;;;;;;0.20;0.20;;;;;;;;;;5047696;28;20272;-71
2023/02/25 09:31:26;;;;;;;0.20;0.20;;;;;;;;;;5043014;28;20315;-68
2023/02/25 09:33:52;;;;;;;0.20;0.20;;;;;;;;;;5051415;28;20249;-67
2023/02/25 09:36:20;;;;;;;0.20;0.20;;;;;;;;;;5045855;28;20306;-68
2023/02/25 09:38:47;;;;;;;0.20;0.20;;;;;;;;;;5053186;28;20215;-68
2023/02/25 09:41:21;;;;;;;0.20;0.20;;;;;;;;;;5045099;28;20262;-65
2023/02/25 09:43:48;;;;;;;0.20;0.20;;;;;;;;;;5052905;28;20284;-66
2023/02/25 09:46:17;;;;;;;0.10;0.10;;;;;;;;;;5045380;28;20299;-69
2023/02/25 09:48:45;;;;;;;0.20;0.20;;;;;;;;;;5053325;28;20251;-68
2023/02/25 09:51:21;;;;;;;0.20;0.20;;;;;;;;;;5044804;28;20580;-67
2023/02/25 09:53:52;;;;;;;0.10;0.10;;;;;;;;;;5052760;28;20262;-68
2023/02/25 09:56:21;;;;;;;0.20;0.20;;;;;;;;;;5045679;28;20627;-67
2023/02/25 09:58:51;;;;;;;0.20;0.20;;;;;;;;;;5052439;28;20273;-68
2023/02/25 10:01:25;;;;;;;0.10;0.10;;;;;;;;;;5045356;28;20259;-68
2023/02/25 10:03:57;;;;;;;0.10;0.10;;;;;;;;;;5051480;28;20240;-68
2023/02/25 10:06:26;;;;;;;0.20;0.20;;;;;;;;;;5046025;28;20240;-68
2023/02/25 10:08:56;;;;;;;0.13;0.13;;;;;;;;;;5051677;28;20229;-68
2023/02/25 10:11:29;;;;;;;0.20;0.20;;;;;;;;;;5045653;28;20311;-68
2023/02/25 10:13:59;;;;;;;0.13;0.13;;;;;;;;;;5051450;28;20485;-68
2023/02/25 10:16:33;;;;;;;0.20;0.20;;;;;;;;;;5046223;28;20239;-68
2023/02/25 10:19:04;;;;;;;0.20;0.20;;;;;;;;;;5050536;28;20446;-70
2023/02/25 10:21:40;;;;;;;0.20;0.20;;;;;;;;;;5046353;28;20239;-69
2023/02/25 10:24:13;;;;;;;0.20;0.20;;;;;;;;;;5049761;28;20216;-70
2023/02/25 10:26:42;;;;;;;0.20;0.20;;;;;;;;;;5047584;28;20243;-70
2023/02/25 10:29:12;;;;;;;0.13;0.13;;;;;;;;;;5049208;28;20231;-70
2023/02/25 10:31:39;;;;;;;0.20;0.20;;;;;;;;;;5047057;28;20259;-68
2023/02/25 10:34:16;;;;;;;0.13;0.13;;;;;;;;;;5049649;28;20212;-68
2023/02/25 10:36:44;;;;;;;0.20;0.20;;;;;;;;;;5047821;28;20248;-68
2023/02/25 10:39:10;;;;;;;0.17;0.17;;;;;;;;;;5048946;28;20282;-69
2023/02/25 10:41:37;;;;;;;0.20;0.20;;;;;;;;;;5046978;28;20239;-70
2023/02/25 10:44:05;;;;;;;0.20;0.20;;;;;;;;;;5048968;28;20231;-69
2023/02/25 10:46:34;;;;;;;0.20;0.20;;;;;;;;;;5046363;28;20242;-68
2023/02/25 10:49:01;;;;;;;0.20;0.20;;;;;;;;;;5049533;28;20218;-68
2023/02/25 10:51:28;;;;;;;0.20;0.20;;;;;;;;;;5045819;28;20310;-68
2023/02/25 10:54:03;;;;;;;0.20;0.20;;;;;;;;;;5050455;28;20214;-67
2023/02/25 10:56:32;;;;;;;0.20;0.20;;;;;;;;;;5045997;28;20569;-68
2023/02/25 10:59:00;;;;;;;0.20;0.20;;;;;;;;;;5049679;28;20247;-68
2023/02/25 11:01:34;;;;;;;0.57;0.57;;;;;;;;;;5045347;28;20434;-68
2023/02/25 11:04:01;;;;;;;0.10;0.10;;;;;;;;;;5049736;28;20225;-70
2023/02/25 11:06:28;;;;;;;0.20;0.20;;;;;;;;;;5045671;28;20520;-67
2023/02/25 11:08:57;;;;;;;0.20;0.20;;;;;;;;;;5049917;28;20279;-68
2023/02/25 11:11:24;;;;;;;0.10;0.10;;;;;;;;;;5044846;28;20589;-69
2023/02/25 11:14:01;;;;;;;0.20;0.20;;;;;;;;;;5050599;28;20232;-69
2023/02/25 11:16:30;;;;;;;0.20;0.20;;;;;;;;;;5045172;28;20298;-69
2023/02/25 11:18:58;;;;;;;0.20;0.20;;;;;;;;;;5049553;28;20545;-69
2023/02/25 11:21:30;;;;;;;0.20;0.20;;;;;;;;;;5044806;28;20579;-70
2023/02/25 11:24:00;;;;;;;0.10;0.10;;;;;;;;;;5049623;28;20375;-69
2023/02/25 11:26:29;;;;;;;0.20;0.20;;;;;;;;;;5044919;28;20256;-69
2023/02/25 11:28:58;;;;;;;0.10;0.10;;;;;;;;;;5049355;28;20214;-68
2023/02/25 11:31:28;;;;;;;0.10;0.10;;;;;;;;;;5044400;28;20255;-69
2023/02/25 11:33:58;;;;;;;0.10;0.10;;;;;;;;;;5049413;28;20258;-69
2023/02/25 11:36:25;;;;;;;0.20;0.20;;;;;;;;;;5044411;28;20251;-69
2023/02/25 11:39:04;;;;;;;0.10;0.10;;;;;;;;;;5049811;28;20283;-69
2023/02/25 11:41:31;;;;;;;0.10;0.10;;;;;;;;;;5045086;28;20311;-69
2023/02/25 11:43:58;;;;;;;0.20;0.20;;;;;;;;;;5048997;28;20208;-67
2023/02/25 11:46:26;;;;;;;0.20;0.20;;;;;;;;;;5044231;28;20306;-67
2023/02/25 11:48:54;;;;;;;0.13;0.13;;;;;;;;;;5049632;28;20204;-69
2023/02/25 11:51:25;;;;;;;0.10;0.10;;;;;;;;;;5043695;28;20324;-69
2023/02/25 11:54:21;;;;;;;0.10;0.10;;;;;;;;;;5049946;28;20194;-69
2023/02/25 11:56:50;;;;;;;0.10;0.10;;;;;;;;;;5012124;28;20240;-69
2023/02/25 11:59:30;;;;;;;0.20;0.20;;;;;;;;;;5039530;28;20240;-68
2023/02/25 12:02:04;;;;;;;0.20;0.20;;;;;;;;;;5047625;28;20590;-69
2023/02/25 12:04:55;;;;;;;0.20;0.20;;;;;;;;;;5044749;28;20264;-68
2023/02/25 12:07:41;;;;;;;0.20;0.20;;;;;;;;;;5040795;28;20450;-69
2023/02/25 12:10:19;;;;;;;0.20;0.20;;;;;;;;;;5036438;28;20281;-69
2023/02/25 12:13:01;;;;;;;0.10;0.10;;;;;;;;;;5044037;28;20220;-69
2023/02/25 12:15:49;;;;;;;0.20;0.20;;;;;;;;;;5014483;28;20477;-68
2023/02/25 12:18:37;;;;;;;0.10;0.10;;;;;;;;;;5054128;28;20234;-69
2023/02/25 12:21:19;;;;;;;0.20;0.20;;;;;;;;;;5041142;28;20315;-68
2023/02/25 12:24:00;;;;;;;0.10;0.10;;;;;;;;;;5049876;28;20231;-69
2023/02/25 12:26:33;;;;;;;0.10;0.10;;;;;;;;;;5043828;28;20500;-67
2023/02/25 12:29:08;;;;;;;0.10;0.10;;;;;;;;;;5048259;28;20540;-67
2023/02/25 12:31:52;;;;;;;0.10;0.10;;;;;;;;;;5044465;28;20367;-67
2023/02/25 12:34:32;;;;;;;0.10;0.10;;;;;;;;;;5045334;28;20212;-68
2023/02/25 12:37:13;;;;;;;0.10;0.10;;;;;;;;;;5047786;28;20248;-66
2023/02/25 12:39:53;;;;;;;0.20;0.20;;;;;;;;;;5043955;28;20206;-67
2023/02/25 12:42:38;;;;;;;0.10;0.10;;;;;;;;;;5048905;28;20322;-67
2023/02/25 12:45:24;;;;;;;0.10;0.10;;;;;;;;;;5043374;28;20292;-67
2023/02/25 12:48:03;;;;;;;0.10;0.10;;;;;;;;;;5043371;28;20427;-67
2023/02/25 12:50:43;;;;;;;0.10;0.10;;;;;;;;;;5036382;28;20307;-69
2023/02/25 12:53:18;;;;;;;0.10;0.10;;;;;;;;;;5054099;28;20193;-68
2023/02/25 12:55:59;;;;;;;0.20;0.20;;;;;;;;;;5038358;28;20306;-68
2023/02/25 12:58:32;;;;;;;0.10;0.10;;;;;;;;;;5035456;28;20277;-68
2023/02/25 13:01:11;;;;;;;0.13;0.13;;;;;;;;;;5039849;28;20258;-68
2023/02/25 13:03:51;;;;;;;0.20;0.20;;;;;;;;;;5050729;28;20263;-68
2023/02/25 13:06:26;;;;;;;0.10;0.10;;;;;;;;;;5043067;28;20278;-68
2023/02/25 13:09:00;;;;;;;0.20;0.20;;;;;;;;;;5052345;28;20200;-72
2023/02/25 13:11:30;;;;;;;0.20;0.20;;;;;;;;;;5047354;28;20251;-66
2023/02/25 13:14:20;;;;;;;0.20;0.20;;;;;;;;;;5051970;28;20204;-68
2023/02/25 13:16:57;;;;;;;0.13;0.13;;;;;;;;;;5049849;28;20268;-69
2023/02/25 13:19:31;;;;;;;0.13;0.13;;;;;;;;;;5048692;28;20208;-70
2023/02/25 13:22:03;;;;;;;0.10;0.10;;;;;;;;;;5051143;28;20264;-68
2023/02/25 13:24:38;;;;;;;0.10;0.10;;;;;;;;;;5047309;28;20204;-71
2023/02/25 13:27:25;;;;;;;0.10;0.10;;;;;;;;;;5051827;28;20239;-66
2023/02/25 13:30:03;;;;;;;0.10;0.10;;;;;;;;;;5021882;28;20213;-69
2023/02/25 13:32:35;;;;;;;0.10;0.10;;;;;;;;;;5052158;28;20303;-67
2023/02/25 13:35:18;;;;;;;0.10;0.10;;;;;;;;;;5047206;28;20205;-69
2023/02/25 13:37:50;;;;;;;0.10;0.10;;;;;;;;;;5046810;28;20528;-70
2023/02/25 13:40:37;;;;;;;0.20;0.20;;;;;;;;;;5038058;28;20205;-72
2023/02/25 13:43:12;;;;;;;0.17;0.17;;;;;;;;;;5058546;28;20260;-71
2023/02/25 13:45:41;;;;;;;0.10;0.10;;;;;;;;;;5040668;28;20244;-71
2023/02/25 13:48:23;;;;;;;0.20;0.20;;;;;;;;;;5057829;28;20261;-72
2023/02/25 13:51:03;;;;;;;0.20;0.20;;;;;;;;;;5041040;28;20442;-68
2023/02/25 13:53:41;;;;;;;0.17;0.17;;;;;;;;;;5054778;28;20192;-68
2023/02/25 13:56:18;;;;;;;0.20;0.20;;;;;;;;;;5044383;28;20239;-68
2023/02/25 13:58:50;;;;;;;0.20;0.20;;;;;;;;;;5052985;28;20199;-70
2023/02/25 14:01:26;;;;;;;0.10;0.10;;;;;;;;;;5045303;28;20306;-67
2023/02/25 14:04:26;;;;;;;0.63;0.63;;;;;;;;;;5051481;28;20227;-67
2023/02/25 14:07:10;;;;;;;0.20;0.20;;;;;;;;;;5049701;28;20309;-69
2023/02/25 14:09:42;;;;;;;0.20;0.20;;;;;;;;;;5046106;28;20274;-69
2023/02/25 14:12:13;;;;;;;0.20;0.20;;;;;;;;;;5051595;28;20244;-69
2023/02/25 14:15:06;;;;;;;0.20;0.20;;;;;;;;;;5046151;28;20236;-70
2023/02/25 14:17:39;;;;;;;0.20;0.20;;;;;;;;;;5011655;28;20238;-73
2023/02/25 14:20:14;;;;;;;0.20;0.20;;;;;;;;;;5046006;28;20239;-73
2023/02/25 14:22:43;;;;;;;0.10;0.10;;;;;;;;;;5042427;28;20232;-73
2023/02/25 14:25:23;;;;;;;0.20;0.20;;;;;;;;;;5036177;28;20285;-73
2023/02/25 14:27:54;;;;;;;0.20;0.20;;;;;;;;;;5059610;28;20529;-73
2023/02/25 14:30:30;;;;;;;0.20;0.20;;;;;;;;;;5037601;28;20272;-73
2023/02/25 14:33:13;;;;;;;0.10;0.10;;;;;;;;;;5058443;28;20219;-73
2023/02/25 14:35:46;;;;;;;0.20;0.20;;;;;;;;;;5040153;28;20690;-73
2023/02/25 14:38:13;;;;;;;0.30;0.30;;;;;;;;;;5056491;28;20225;-73
2023/02/25 14:40:43;;;;;;;0.10;0.10;;;;;;;;;;5039653;28;20240;-72
2023/02/25 14:43:24;;;;;;;0.20;0.20;;;;;;;;;;5056782;28;20260;-72
2023/02/25 14:45:51;;;;;;;0.10;0.10;;;;;;;;;;5041205;28;20303;-72
2023/02/25 14:48:20;;;;;;;0.10;0.10;;;;;;;;;;5055598;28;20536;-74
2023/02/25 14:50:50;;;;;;;0.10;0.10;;;;;;;;;;5040669;28;20256;-73
2023/02/25 14:53:23;;;;;;;0.37;0.37;;;;;;;;;;5055351;28;20276;-72
2023/02/25 14:56:08;;;;;;;0.13;0.13;;;;;;;;;;5041036;28;20251;-76
2023/02/25 14:58:50;;;;;;;0.20;0.20;;;;;;;;;;5015555;28;20214;-73